Time;durP1;ratioP1;P1;durP2;ratioP2;P2;SDS_P1;SDS_P2;PMS_P1;PMS_P2;Temp;Humidity;BMP_temperature;BMP_pressure;BME280_temperature;BME280_humidity;BME280_pressure;Samples;Min_cycle;Max_cycle;Signal;HPM_P1;HPM_P2
2021/09/14 00:02:15;;;;;;;4.47;2.97;;;;;;;23.42;58.90;98565.50;5052497;28;20112;-51
2021/09/14 00:04:40;;;;;;;4.75;2.33;;;;;;;23.33;59.10;98570.66;5052444;28;20048;-50
2021/09/14 00:07:06;;;;;;;5.30;2.33;;;;;;;23.25;59.33;98568.63;5052464;28;20033;-51
2021/09/14 00:09:32;;;;;;;4.15;2.60;;;;;;;23.21;59.71;98556.91;5034587;28;20032;-50
2021/09/14 00:11:58;;;;;;;3.85;2.38;;;;;;;23.16;59.64;98565.00;5034524;28;20079;-51
2021/09/14 00:14:24;;;;;;;6.10;2.30;;;;;;;23.13;59.56;98552.19;5052329;28;20017;-51
2021/09/14 00:16:50;;;;;;;4.47;2.22;;;;;;;23.07;60.16;98561.34;5034454;28;20021;-51
2021/09/14 00:19:16;;;;;;;5.35;2.63;;;;;;;22.93;60.00;98553.97;5054363;28;20486;-50
2021/09/14 00:21:42;;;;;;;3.70;2.97;;;;;;;22.98;60.47;98555.81;5054063;28;20452;-51
2021/09/14 00:24:08;;;;;;;2.83;2.25;;;;;;;22.94;60.10;98552.13;5054331;28;20382;-50
2021/09/14 00:26:34;;;;;;;2.38;2.10;;;;;;;22.92;60.78;98562.31;5054088;28;20024;-51
2021/09/14 00:29:00;;;;;;;5.18;2.50;;;;;;;22.80;60.77;98568.03;5054097;28;20032;-50
2021/09/14 00:31:27;;;;;;;6.43;2.42;;;;;;;22.82;61.15;98568.56;5054134;28;20041;-50
2021/09/14 00:33:53;;;;;;;3.85;2.50;;;;;;;22.81;60.60;98558.91;5072055;28;20109;-50
2021/09/14 00:36:20;;;;;;;6.47;2.40;;;;;;;22.81;60.82;98566.16;5072156;28;20040;-51
2021/09/14 00:38:46;;;;;;;9.90;2.63;;;;;;;22.77;60.92;98563.25;5037327;28;20389;-50
2021/09/14 00:41:12;;;;;;;5.90;2.70;;;;;;;22.83;61.12;98559.44;5071689;28;20571;-51
2021/09/14 00:43:37;;;;;;;5.75;2.63;;;;;;;22.87;61.38;98555.09;5071899;28;20070;-50
2021/09/14 00:46:03;;;;;;;6.57;2.50;;;;;;;22.87;61.06;98563.13;5071855;28;20031;-50
2021/09/14 00:48:29;;;;;;;6.70;2.55;;;;;;;22.88;61.06;98558.59;5071846;28;20116;-51
2021/09/14 00:50:55;;;;;;;5.07;2.78;;;;;;;22.79;61.09;98560.28;5071784;28;20487;-50
2021/09/14 00:53:22;;;;;;;6.28;2.95;;;;;;;22.85;61.08;98551.13;5072048;28;20450;-50
2021/09/14 00:55:49;;;;;;;6.38;2.53;;;;;;;22.74;61.29;98545.88;5070463;28;20033;-50
2021/09/14 00:58:15;;;;;;;4.72;2.30;;;;;;;22.70;61.67;98542.19;5071714;28;20024;-51
2021/09/14 01:00:41;;;;;;;4.25;2.65;;;;;;;22.74;61.80;98542.44;5071651;28;20028;-50
2021/09/14 01:03:07;;;;;;;3.08;2.60;;;;;;;22.73;61.80;98549.63;5071504;28;20089;-51
2021/09/14 01:05:33;;;;;;;4.60;2.72;;;;;;;22.74;61.96;98553.13;5053619;28;20021;-51
2021/09/14 01:07:59;;;;;;;8.90;2.88;;;;;;;22.74;61.93;98537.06;5071619;28;20513;-50
2021/09/14 01:10:29;;;;;;;8.77;5.70;;;;;;;22.71;61.90;98548.31;5071612;28;20107;-50
2021/09/14 01:12:54;;;;;;;6.20;2.65;;;;;;;22.67;62.07;98540.06;5071479;28;20280;-51
2021/09/14 01:15:20;;;;;;;4.72;2.45;;;;;;;22.68;62.02;98540.88;5053584;28;20241;-50
2021/09/14 01:17:46;;;;;;;4.50;2.30;;;;;;;22.68;61.78;98528.31;5047775;28;20085;-50
2021/09/14 01:20:12;;;;;;;4.57;2.22;;;;;;;22.77;61.46;98533.03;5051519;28;20080;-50
2021/09/14 01:22:38;;;;;;;6.97;2.92;;;;;;;22.74;61.63;98529.03;5051417;28;20029;-50
2021/09/14 01:25:21;;;;;;;8.57;5.55;;;;;;;22.69;61.77;98526.41;5051277;28;20029;-50
2021/09/14 01:27:47;;;;;;;5.10;2.60;;;;;;;22.76;61.67;98532.22;5051472;28;20490;-50
2021/09/14 01:30:18;;;;;;;7.20;3.10;;;;;;;22.76;61.77;98537.59;5033762;28;20028;-50
2021/09/14 01:32:47;;;;;;;5.45;3.45;;;;;;;22.82;61.47;98527.59;5051386;28;20029;-51
2021/09/14 01:35:17;;;;;;;7.63;2.88;;;;;;;22.82;61.54;98528.41;5033483;28;20036;-50
2021/09/14 01:37:44;;;;;;;4.40;2.85;;;;;;;22.89;61.38;98531.53;5051397;28;20458;-50
2021/09/14 01:40:10;;;;;;;5.05;3.03;;;;;;;22.82;61.86;98540.97;5051300;28;20059;-51
2021/09/14 01:42:37;;;;;;;5.47;2.80;;;;;;;22.73;61.50;98535.47;5033335;28;20056;-51
2021/09/14 01:45:05;;;;;;;3.83;2.88;;;;;;;22.67;62.10;98528.56;5051244;28;20033;-51
2021/09/14 01:47:30;;;;;;;4.57;2.55;;;;;;;22.77;61.86;98533.03;5051306;28;20414;-51
2021/09/14 01:49:56;;;;;;;4.88;2.80;;;;;;;22.72;62.51;98523.97;5051229;28;20025;-50
2021/09/14 01:52:23;;;;;;;5.25;2.50;;;;;;;22.71;62.50;98522.38;5051243;28;20056;-50
2021/09/14 01:54:50;;;;;;;4.53;3.05;;;;;;;22.73;62.12;98533.56;5051212;28;20096;-51
2021/09/14 01:57:21;;;;;;;6.53;4.20;;;;;;;22.66;62.38;98521.66;5051130;28;20498;-50
2021/09/14 01:59:47;;;;;;;4.72;3.00;;;;;;;22.67;62.36;98531.25;5051178;28;20067;-50
2021/09/14 02:40:16;;;;;;;6.80;4.20;;;;;;;22.43;62.63;98531.22;5074432;28;20035;-51
2021/09/14 02:58:50;;;;;;;4.30;3.15;;;;;;;22.56;62.26;98525.22;5073825;28;20074;-50
2021/09/14 03:01:16;;;;;;;6.00;3.10;;;;;;;22.55;62.11;98523.59;5073694;28;20028;-51
2021/09/14 03:03:48;;;;;;;5.35;3.67;;;;;;;22.56;62.13;98522.53;5055768;28;20021;-50
2021/09/14 03:06:14;;;;;;;4.90;3.72;;;;;;;22.49;62.33;98516.72;5073725;28;20020;-50
2021/09/14 03:08:41;;;;;;;9.30;4.75;;;;;;;22.50;62.17;98513.75;5073477;28;20464;-50
2021/09/14 03:11:08;;;;;;;4.35;3.25;;;;;;;22.48;62.61;98528.50;5073578;28;20484;-51
2021/09/14 03:13:38;;;;;;;5.07;3.63;;;;;;;22.48;62.88;98520.47;5055529;28;20032;-50
2021/09/14 03:16:09;;;;;;;7.50;6.75;;;;;;;22.48;62.75;98510.56;5055449;28;20025;-51
2021/09/14 03:18:39;;;;;;;4.93;3.83;;;;;;;22.47;62.88;98510.84;5055103;28;20413;-50
2021/09/14 03:21:07;;;;;;;6.95;4.85;;;;;;;22.37;63.64;98509.06;5072454;28;20024;-51
2021/09/14 03:23:33;;;;;;;10.00;5.43;;;;;;;22.29;63.64;98510.47;5073143;28;20029;-51
2021/09/14 03:26:00;;;;;;;6.93;3.83;;;;;;;22.25;64.43;98505.97;5073245;28;20541;-51
2021/09/14 03:28:26;;;;;;;4.07;3.67;;;;;;;22.14;64.64;98514.06;5073282;28;20027;-51
2021/09/14 03:30:54;;;;;;;7.95;4.35;;;;;;;22.11;64.75;98516.50;5055201;28;20029;-51
2021/09/14 03:33:20;;;;;;;5.95;3.90;;;;;;;22.05;64.79;98513.06;5073228;28;20028;-51
2021/09/14 03:35:45;;;;;;;10.90;6.55;;;;;;;22.11;65.14;98508.47;5073056;28;20551;-50
2021/09/14 03:38:11;;;;;;;6.63;4.38;;;;;;;22.09;65.16;98506.09;5055057;28;20035;-51
2021/09/14 03:40:39;;;;;;;7.20;4.38;;;;;;;22.07;65.00;98504.75;5072939;28;20024;-50
2021/09/14 03:43:06;;;;;;;6.72;4.30;;;;;;;22.07;65.27;98512.78;5072899;28;20397;-50
2021/09/14 03:45:32;;;;;;;8.90;4.97;;;;;;;22.09;64.95;98508.78;5072852;28;20024;-50
2021/09/14 03:47:57;;;;;;;11.00;4.68;;;;;;;22.14;64.46;98514.06;5055143;28;20107;-50
2021/09/14 03:50:23;;;;;;;8.20;4.45;;;;;;;22.18;64.62;98513.50;5072787;28;20016;-51
2021/09/14 03:52:49;;;;;;;14.57;6.22;;;;;;;22.22;64.30;98517.22;5054776;28;20024;-50
2021/09/14 03:55:17;;;;;;;8.18;4.35;;;;;;;22.28;63.78;98513.44;5054749;28;20238;-50
2021/09/14 03:57:43;;;;;;;6.78;4.82;;;;;;;22.27;63.89;98506.50;5054647;28;20024;-50
2021/09/14 04:00:09;;;;;;;7.97;4.10;;;;;;;22.31;63.57;98508.31;5072525;28;20035;-51
2021/09/14 04:02:46;;;;;;;8.63;4.93;;;;;;;22.43;63.13;98513.28;5072525;28;20024;-51
2021/09/14 04:05:28;;;;;;;7.03;5.25;;;;;;;22.49;63.00;98511.38;5072465;28;20040;-50
2021/09/14 04:10:36;;;;;;;13.27;10.15;;;;;;;22.62;62.61;98512.59;5072404;28;20492;-51
2021/09/14 04:13:01;;;;;;;17.25;8.13;;;;;;;22.61;62.55;98514.44;5054359;28;20029;-52
2021/09/14 04:15:27;;;;;;;12.30;6.22;;;;;;;22.61;62.58;98513.66;5072366;28;20024;-50
2021/09/14 04:17:53;;;;;;;7.80;6.53;;;;;;;22.61;62.22;98513.66;5072077;28;20040;-51
2021/09/14 04:20:19;;;;;;;5.88;3.17;;;;;;;22.54;62.44;98514.78;5072323;28;20048;-50
2021/09/14 04:22:44;;;;;;;6.13;4.00;;;;;;;22.43;62.84;98523.97;5072205;28;20046;-50
2021/09/14 04:25:10;;;;;;;7.53;3.97;;;;;;;22.33;63.43;98518.72;5054304;28;20047;-50
2021/09/14 04:27:36;;;;;;;44.80;40.67;;;;;;;22.24;63.88;98520.44;5054072;28;20036;-51
2021/09/14 04:30:05;;;;;;;10.05;4.85;;;;;;;22.26;63.38;98521.75;5054107;28;20017;-50
2021/09/14 04:32:30;;;;;;;6.88;4.15;;;;;;;22.23;63.81;98524.94;5071821;28;20103;-51
2021/09/14 04:34:56;;;;;;;4.50;3.80;;;;;;;22.22;63.78;98519.88;5072038;28;20147;-51
2021/09/14 04:37:23;;;;;;;11.15;4.13;;;;;;;22.28;63.58;98524.16;5053975;28;20047;-51
2021/09/14 04:39:49;;;;;;;5.45;3.85;;;;;;;22.42;63.00;98524.28;5071917;28;20036;-50
2021/09/14 04:42:15;;;;;;;18.48;16.33;;;;;;;22.44;63.23;98520.25;5071834;28;20028;-51
2021/09/14 04:44:40;;;;;;;10.38;5.55;;;;;;;22.46;62.85;98517.28;5053877;28;20037;-51
2021/09/14 04:47:06;;;;;;;4.90;3.30;;;;;;;22.44;62.74;98516.78;5071935;28;20030;-50
2021/09/14 04:49:32;;;;;;;7.93;4.65;;;;;;;22.40;62.97;98521.09;5071875;28;20032;-50
2021/09/14 04:51:58;;;;;;;7.97;3.55;;;;;;;22.36;63.14;98531.56;5070488;28;20033;-50
2021/09/14 04:54:23;;;;;;;6.47;3.78;;;;;;;22.33;63.08;98524.09;5071692;28;20024;-51
2021/09/14 04:56:49;;;;;;;6.88;3.42;;;;;;;22.35;63.08;98521.91;5053724;28;20063;-50
2021/09/14 04:59:15;;;;;;;6.07;3.55;;;;;;;22.47;62.67;98526.91;5071797;28;20025;-50
2021/09/14 05:01:41;;;;;;;9.02;3.35;;;;;;;22.46;62.89;98525.31;5071596;28;20025;-50
2021/09/14 05:04:06;;;;;;;6.82;3.00;;;;;;;22.40;62.71;98529.13;5071728;28;20017;-50
2021/09/14 05:06:32;;;;;;;5.20;3.55;;;;;;;22.40;62.70;98532.59;5071699;28;20557;-51
2021/09/14 05:08:57;;;;;;;8.20;3.38;;;;;;;22.41;62.69;98523.47;5071684;28;20021;-50
2021/09/14 05:11:23;;;;;;;7.45;4.32;;;;;;;22.54;62.73;98525.50;5071641;28;20565;-50
2021/09/14 05:13:52;;;;;;;10.25;4.35;;;;;;;22.70;62.35;98528.03;5071650;28;20525;-51
2021/09/14 05:16:17;;;;;;;13.73;7.70;;;;;;;22.93;61.70;98518.38;5071650;28;20017;-51
2021/09/14 05:18:46;;;;;;;8.75;3.45;;;;;;;23.11;60.83;98522.22;5071304;28;20040;-50
2021/09/14 05:21:12;;;;;;;7.75;3.75;;;;;;;23.10;60.22;98521.44;5071563;28;20021;-51
2021/09/14 05:23:38;;;;;;;13.25;8.45;;;;;;;22.91;60.89;98529.38;5071402;28;20032;-51
2021/09/14 05:26:04;;;;;;;6.30;3.33;;;;;;;22.92;61.21;98527.50;5071524;28;20029;-51
2021/09/14 05:28:35;;;;;;;6.82;3.40;;;;;;;23.03;61.23;98515.63;5071459;28;20021;-51
2021/09/14 05:31:03;;;;;;;6.30;3.97;;;;;;;23.28;60.21;98529.75;5071701;28;20021;-51
2021/09/14 05:33:29;;;;;;;15.20;13.73;;;;;;;23.39;59.87;98517.84;5071435;28;20028;-51
2021/09/14 05:35:56;;;;;;;7.05;3.30;;;;;;;23.53;59.07;98525.97;5070016;28;20028;-50
2021/09/14 05:38:24;;;;;;;4.63;3.17;;;;;;;23.45;59.04;98530.09;5053377;28;20024;-51
2021/09/14 05:40:55;;;;;;;7.13;3.58;;;;;;;23.49;59.40;98527.63;5053242;28;20020;-51
2021/09/14 05:43:24;;;;;;;7.05;3.83;;;;;;;23.56;59.21;98530.72;5072971;28;20031;-51
2021/09/14 05:45:50;;;;;;;7.15;3.00;;;;;;;23.55;58.67;98529.16;5057045;28;20020;-51
2021/09/14 05:48:16;;;;;;;12.95;3.92;;;;;;;23.64;59.06;98532.78;5075437;28;20029;-50
2021/09/14 05:50:45;;;;;;;11.27;3.60;;;;;;;23.93;58.03;98526.50;5073430;28;20031;-51
2021/09/14 05:53:13;;;;;;;18.52;13.23;;;;;;;24.08;57.91;98526.22;5075015;28;20036;-51
2021/09/14 05:55:40;;;;;;;8.35;4.22;;;;;;;24.11;57.80;98527.53;5074943;28;20021;-51
2021/09/14 05:58:07;;;;;;;8.13;4.00;;;;;;;23.97;58.17;98522.13;5056740;28;20035;-50
2021/09/14 06:00:34;;;;;;;8.13;4.97;;;;;;;24.10;57.52;98525.94;5056876;28;20025;-50
2021/09/14 06:03:00;;;;;;;10.85;4.53;;;;;;;23.59;58.39;98527.47;5056739;28;20060;-50
2021/09/14 06:05:26;;;;;;;8.02;5.28;;;;;;;23.04;59.73;98537.81;5074818;28;20021;-50
2021/09/14 06:07:52;;;;;;;10.48;5.13;;;;;;;22.67;61.45;98533.94;5056800;28;20031;-50
2021/09/14 06:10:18;;;;;;;10.00;4.90;;;;;;;22.30;62.54;98546.84;5056720;28;20020;-50
2021/09/14 06:12:44;;;;;;;11.43;5.18;;;;;;;22.00;63.51;98539.03;5056650;28;20025;-50
2021/09/14 06:15:10;;;;;;;9.95;6.05;;;;;;;21.82;64.17;98538.63;5073316;28;20090;-50
2021/09/14 06:17:37;;;;;;;10.02;4.80;;;;;;;21.74;64.57;98537.31;5071786;28;20123;-52
2021/09/14 06:20:03;;;;;;;8.20;5.10;;;;;;;21.72;65.04;98544.03;5072599;28;20546;-50
2021/09/14 06:22:30;;;;;;;12.15;7.38;;;;;;;21.71;65.41;98542.41;5074387;28;20024;-50
2021/09/14 06:24:55;;;;;;;7.78;4.80;;;;;;;21.66;65.27;98534.47;5074473;28;20021;-50
2021/09/14 06:27:21;;;;;;;8.77;4.68;;;;;;;21.63;65.39;98532.31;5056641;28;20025;-50
2021/09/14 06:29:47;;;;;;;9.90;7.25;;;;;;;21.65;65.60;98535.50;5073070;28;20375;-50
2021/09/14 06:32:13;;;;;;;9.65;6.38;;;;;;;21.66;65.48;98531.78;5056408;28;20039;-50
2021/09/14 06:34:39;;;;;;;7.70;5.93;;;;;;;21.74;64.98;98534.66;5056281;28;20017;-50
2021/09/14 06:37:07;;;;;;;8.10;4.68;;;;;;;21.85;64.62;98527.41;5074288;28;20465;-50
2021/09/14 06:39:33;;;;;;;8.45;5.70;;;;;;;21.96;64.46;98530.00;5074098;28;20020;-50
2021/09/14 06:41:58;;;;;;;11.07;7.28;;;;;;;21.96;64.17;98530.78;5056072;28;20025;-50
2021/09/14 06:44:24;;;;;;;11.43;5.38;;;;;;;22.16;63.78;98529.03;5074065;28;20013;-51
2021/09/14 06:46:53;;;;;;;9.50;5.65;;;;;;;22.34;63.02;98525.69;5056081;28;20059;-50
2021/09/14 06:49:20;;;;;;;11.02;6.80;;;;;;;22.38;62.52;98520.59;5074050;28;20469;-51
2021/09/14 06:51:46;;;;;;;8.75;4.20;;;;;;;22.37;62.92;98524.31;5055931;28;20035;-51
2021/09/14 06:54:12;;;;;;;10.13;5.05;;;;;;;22.61;62.37;98513.66;5055768;28;20490;-49
2021/09/14 06:56:38;;;;;;;9.35;5.00;;;;;;;22.91;61.56;98517.88;5073889;28;20490;-51
2021/09/14 06:59:06;;;;;;;6.45;4.20;;;;;;;23.20;60.38;98517.84;5074189;28;20031;-50
2021/09/14 07:01:32;;;;;;;16.00;4.20;;;;;;;23.30;60.16;98517.72;5055643;28;20505;-51
2021/09/14 07:03:58;;;;;;;4.45;3.60;;;;;;;23.34;59.68;98515.22;5072457;28;20042;-50
2021/09/14 07:06:24;;;;;;;10.23;4.50;;;;;;;23.47;59.03;98508.38;5073721;28;20036;-50
2021/09/14 07:08:50;;;;;;;7.05;3.70;;;;;;;23.61;58.43;98509.25;5073688;28;20386;-50
2021/09/14 07:11:16;;;;;;;7.07;3.95;;;;;;;23.66;58.35;98511.84;5073613;28;20020;-50
2021/09/14 07:13:42;;;;;;;8.93;5.18;;;;;;;23.69;58.04;98511.25;5073529;28;20029;-51
2021/09/14 07:16:08;;;;;;;5.55;3.25;;;;;;;23.79;57.74;98504.19;5055694;28;20028;-52
2021/09/14 07:18:38;;;;;;;11.48;3.83;;;;;;;23.93;57.05;98508.50;5073140;28;20580;-50
2021/09/14 07:21:04;;;;;;;7.70;4.50;;;;;;;24.03;57.09;98504.09;5073234;28;20021;-50
2021/09/14 07:23:30;;;;;;;7.25;3.40;;;;;;;24.10;56.83;98496.44;5073295;28;20020;-50
2021/09/14 07:25:56;;;;;;;5.15;3.90;;;;;;;24.26;56.26;98496.97;5073298;28;20032;-51
2021/09/14 07:28:22;;;;;;;7.40;3.38;;;;;;;24.31;55.93;98503.06;5055207;28;20116;-50
2021/09/14 07:30:48;;;;;;;11.73;4.85;;;;;;;24.49;55.16;98506.78;5071866;28;20021;-50
2021/09/14 07:33:13;;;;;;;5.47;3.40;;;;;;;24.52;55.39;98508.09;5055265;28;20083;-50
2021/09/14 07:35:40;;;;;;;6.50;3.78;;;;;;;24.61;55.10;98508.19;5055184;28;20033;-50
2021/09/14 07:38:05;;;;;;;8.98;4.70;;;;;;;24.63;55.12;98508.69;5073089;28;20029;-50
2021/09/14 07:40:31;;;;;;;10.35;5.47;;;;;;;24.60;55.11;98506.59;5055049;28;20115;-50
2021/09/14 07:42:58;;;;;;;7.18;3.90;;;;;;;24.58;55.21;98514.16;5071597;28;20021;-50
2021/09/14 07:45:24;;;;;;;20.83;17.25;;;;;;;24.56;55.46;98519.03;5072929;28;20025;-50
2021/09/14 07:47:50;;;;;;;16.08;14.57;;;;;;;24.47;55.63;98511.63;5071545;28;20030;-50
2021/09/14 07:50:16;;;;;;;7.25;4.55;;;;;;;24.30;56.35;98524.81;5054769;28;20033;-50
2021/09/14 07:52:42;;;;;;;11.57;10.02;;;;;;;24.26;56.66;98523.81;5054770;28;20032;-51
2021/09/14 07:55:09;;;;;;;6.60;4.53;;;;;;;24.36;56.63;98537.03;5072739;28;20027;-50
2021/09/14 07:57:35;;;;;;;6.32;4.03;;;;;;;24.51;55.90;98536.81;5072662;28;20032;-51
2021/09/14 08:00:01;;;;;;;21.63;11.23;;;;;;;24.64;56.06;98539.81;5071287;28;20020;-51
2021/09/14 08:02:26;;;;;;;24.17;6.85;;;;;;;24.85;55.58;98538.34;5071176;28;20078;-50
2021/09/14 08:04:52;;;;;;;9.48;3.90;;;;;;;24.90;55.11;98542.81;5072423;28;20025;-50
2021/09/14 08:07:18;;;;;;;6.70;3.35;;;;;;;24.76;55.47;98553.53;5054100;28;20516;-50
2021/09/14 08:09:44;;;;;;;6.40;3.30;;;;;;;24.61;55.66;98561.84;5054522;28;20490;-50
2021/09/14 08:12:10;;;;;;;7.10;3.70;;;;;;;24.50;55.68;98564.72;5054461;28;20511;-51
2021/09/14 08:14:39;;;;;;;6.57;3.50;;;;;;;24.36;56.20;98566.53;5054399;28;20116;-50
2021/09/14 08:17:04;;;;;;;8.38;7.22;;;;;;;24.27;56.63;98573.69;5072317;28;20024;-51
2021/09/14 08:19:30;;;;;;;18.45;16.77;;;;;;;24.24;56.76;98575.03;5070409;28;20040;-51
2021/09/14 08:21:58;;;;;;;9.70;3.72;;;;;;;24.20;56.80;98575.94;5070816;28;20047;-51
2021/09/14 08:24:24;;;;;;;8.20;4.80;;;;;;;24.18;56.89;98581.56;5072190;28;20047;-51
2021/09/14 08:26:50;;;;;;;7.05;4.70;;;;;;;24.31;56.85;98580.06;5072194;28;20013;-51
2021/09/14 08:29:16;;;;;;;17.63;15.88;;;;;;;24.60;56.22;98582.53;5054093;28;20069;-51
2021/09/14 08:31:42;;;;;;;7.88;3.67;;;;;;;24.84;55.41;98576.22;5054090;28;20095;-51
2021/09/14 08:34:09;;;;;;;9.55;7.30;;;;;;;25.01;54.86;98578.28;5054125;28;20513;-51
2021/09/14 08:36:36;;;;;;;25.83;17.70;;;;;;;25.02;54.46;98577.22;5072031;28;20024;-50
2021/09/14 08:39:03;;;;;;;9.85;6.47;;;;;;;25.05;54.48;98574.75;5070859;28;20039;-50
2021/09/14 08:41:31;;;;;;;12.32;4.97;;;;;;;25.18;53.98;98564.28;5053716;28;20024;-50
2021/09/14 08:43:59;;;;;;;8.85;3.92;;;;;;;25.17;53.98;98571.53;5071944;28;20020;-50
2021/09/14 08:46:24;;;;;;;6.78;3.67;;;;;;;25.27;53.58;98570.56;5053733;28;20134;-50
2021/09/14 08:48:51;;;;;;;12.02;6.50;;;;;;;25.35;53.57;98569.06;5071919;28;20022;-51
2021/09/14 08:51:17;;;;;;;17.13;9.95;;;;;;;25.51;53.26;98571.16;5071822;28;20020;-50
2021/09/14 08:53:43;;;;;;;11.80;4.78;;;;;;;25.61;52.37;98583.53;5071865;28;20025;-50
2021/09/14 08:56:12;;;;;;;11.68;6.80;;;;;;;25.74;52.57;98583.84;5053714;28;20498;-50
2021/09/14 08:58:38;;;;;;;7.57;3.53;;;;;;;26.03;51.00;98575.41;5053767;28;20024;-50
2021/09/14 09:01:14;;;;;;;11.18;4.53;;;;;;;26.30;51.29;98586.03;5071759;28;20023;-50
2021/09/14 09:03:40;;;;;;;9.85;4.03;;;;;;;26.58;50.49;98587.81;5071517;28;20114;-51
2021/09/14 09:06:07;;;;;;;6.30;3.85;;;;;;;26.96;49.14;98588.13;5053696;28;20588;-51
2021/09/14 09:08:36;;;;;;;4.65;3.20;;;;;;;27.15;48.15;98589.81;5071739;28;20398;-50
2021/09/14 09:11:01;;;;;;;7.07;3.35;;;;;;;27.06;48.37;98587.88;5071726;28;20020;-51
2021/09/14 09:13:33;;;;;;;9.80;3.95;;;;;;;27.06;48.42;98577.13;5071736;28;20091;-51
2021/09/14 09:15:59;;;;;;;5.97;3.17;;;;;;;27.02;48.43;98578.03;5053553;28;20021;-51
2021/09/14 09:18:25;;;;;;;9.70;5.55;;;;;;;26.85;48.70;98574.16;5073238;28;20514;-50
2021/09/14 09:20:51;;;;;;;5.50;3.05;;;;;;;26.69;48.55;98584.53;5057757;28;20036;-50
2021/09/14 09:23:23;;;;;;;13.68;8.63;;;;;;;26.59;48.70;98584.03;5075598;28;20511;-51
2021/09/14 09:25:50;;;;;;;7.60;4.35;;;;;;;26.50;49.42;98584.75;5067906;28;20099;-50
2021/09/14 09:28:20;;;;;;;8.80;3.67;;;;;;;26.60;49.20;98581.03;5057422;28;20035;-51
2021/09/14 09:30:56;;;;;;;5.90;4.00;;;;;;;27.00;48.49;98582.94;5075483;28;20558;-51
2021/09/14 09:33:27;;;;;;;4.75;2.88;;;;;;;27.43;47.70;98583.09;5075342;28;20035;-51
2021/09/14 09:36:08;;;;;;;8.15;2.60;;;;;;;27.53;46.98;98582.00;5075416;28;20095;-51
2021/09/14 09:38:49;;;;;;;8.20;3.22;;;;;;;27.73;46.85;98580.59;5075411;28;20434;-51
2021/09/14 09:41:19;;;;;;;5.65;3.03;;;;;;;27.99;46.16;98585.22;5075390;28;20016;-51
2021/09/14 09:43:48;;;;;;;6.97;3.30;;;;;;;28.24;45.13;98587.09;5075519;28;20031;-51
2021/09/14 09:46:23;;;;;;;8.95;2.92;;;;;;;28.57;44.42;98586.59;5057260;28;20020;-51
2021/09/14 09:48:49;;;;;;;12.93;4.82;;;;;;;28.97;44.21;98578.19;5057245;28;20089;-51
2021/09/14 09:51:21;;;;;;;5.82;3.20;;;;;;;29.24;42.56;98574.28;5075094;28;20024;-51
2021/09/14 09:53:47;;;;;;;10.43;3.95;;;;;;;29.44;42.13;98572.72;5073790;28;20055;-51
2021/09/14 09:56:15;;;;;;;11.88;3.15;;;;;;;30.17;41.10;98578.88;5075002;28;20024;-51
2021/09/14 09:58:43;;;;;;;7.85;2.92;;;;;;;31.14;39.41;98574.00;5056875;28;20032;-51
2021/09/14 10:01:15;;;;;;;6.55;2.85;;;;;;;31.35;38.49;98573.84;5074779;28;20445;-52
2021/09/14 10:04:10;;;;;;;5.18;2.50;;;;;;;31.48;37.95;98572.75;5074910;28;20332;-51
2021/09/14 10:06:40;;;;;;;;;;;;;;;31.99;37.69;98574.97;5057253;28;20505;-51
2021/09/14 10:09:06;;;;;;;10.93;4.95;;;;;;;32.15;37.09;98564.97;5075111;28;19920;-51
2021/09/14 10:11:34;;;;;;;5.28;3.08;;;;;;;31.79;36.34;98571.28;5074723;28;20104;-51
2021/09/14 10:14:07;;;;;;;7.90;3.65;;;;;;;31.18;36.91;98572.97;5074697;28;20027;-51
2021/09/14 10:16:54;;;;;;;4.63;2.78;;;;;;;31.40;37.81;98571.69;5074655;28;20481;-51
2021/09/14 10:19:31;;;;;;;15.13;7.28;;;;;;;32.32;35.59;98566.59;5073740;28;20055;-51
2021/09/14 10:22:01;;;;;;;65.85;60.20;;;;;;;33.45;34.53;98560.78;5074441;28;20087;-51
2021/09/14 10:24:27;;;;;;;27.80;21.45;;;;;;;34.35;33.28;98557.91;5056296;28;20028;-49
2021/09/14 10:27:16;;;;;;;6.07;3.05;;;;;;;35.05;32.33;98560.63;5074463;28;20020;-49
2021/09/14 10:29:43;;;;;;;5.53;2.58;;;;;;;34.69;31.70;98574.50;5073944;28;20501;-49
2021/09/14 10:32:14;;;;;;;9.75;4.90;;;;;;;33.45;31.71;98577.09;5056024;28;20119;-48
2021/09/14 10:34:54;;;;;;;8.25;2.95;;;;;;;32.06;33.28;98605.06;5074337;28;20406;-49
2021/09/14 10:37:21;;;;;;;4.40;2.40;;;;;;;31.16;34.96;98610.47;5074246;28;20457;-51
2021/09/14 10:39:47;;;;;;;10.55;5.75;;;;;;;30.56;35.57;98593.00;5074201;28;20489;-51
2021/09/14 10:42:21;;;;;;;5.50;3.65;;;;;;;29.83;36.47;98594.28;5072696;28;20033;-51
2021/09/14 10:44:50;;;;;;;3.80;2.00;;;;;;;29.24;37.49;98600.53;5066307;28;20094;-51
2021/09/14 10:47:21;;;;;;;10.18;9.27;;;;;;;28.91;38.91;98603.81;5074100;28;20557;-51
2021/09/14 10:49:48;;;;;;;4.45;3.05;;;;;;;28.71;38.67;98594.50;5056030;28;20036;-51
2021/09/14 10:52:17;;;;;;;4.15;2.50;;;;;;;28.38;39.94;98602.34;5074052;28;20032;-51
2021/09/14 10:54:48;;;;;;;11.98;8.90;;;;;;;28.34;40.38;98615.69;5074084;28;20028;-51
2021/09/14 10:57:15;;;;;;;4.18;1.90;;;;;;;28.33;39.91;98605.97;5073966;28;20024;-51
2021/09/14 10:59:49;;;;;;;11.98;4.05;;;;;;;28.22;41.64;98613.63;5055948;28;20094;-51
2021/09/14 11:02:15;;;;;;;13.10;9.32;;;;;;;28.40;40.43;98609.00;5073750;28;20020;-51
2021/09/14 11:04:45;;;;;;;9.10;4.07;;;;;;;28.81;39.76;98613.06;5055793;28;20043;-51
2021/09/14 11:07:17;;;;;;;6.70;2.30;;;;;;;29.11;39.25;98607.72;5073770;28;20091;-51
2021/09/14 11:09:44;;;;;;;8.77;2.35;;;;;;;29.14;38.80;98598.16;5073602;28;20036;-51
2021/09/14 11:12:21;;;;;;;5.35;3.75;;;;;;;29.22;38.83;98591.94;5073539;28;20398;-51
2021/09/14 11:14:48;;;;;;;183.50;130.38;;;;;;;29.41;38.95;98608.53;5055590;28;20073;-51
2021/09/14 11:17:26;;;;;;;342.85;238.10;;;;;;;29.84;38.64;98595.84;5073501;28;20486;-51
2021/09/14 11:19:53;;;;;;;134.63;101.38;;;;;;;30.35;37.66;98607.38;5073286;28;20048;-51
2021/09/14 11:22:36;;;;;;;80.45;51.80;;;;;;;30.67;36.93;98594.16;5073264;28;20115;-51
2021/09/14 11:25:04;;;;;;;33.90;16.38;;;;;;;30.80;36.17;98597.66;5073447;28;20028;-50
2021/09/14 11:27:32;;;;;;;12.15;9.18;;;;;;;30.72;36.17;98591.22;5055120;28;20076;-51
2021/09/14 11:29:58;;;;;;;14.13;9.07;;;;;;;30.83;36.26;98594.28;5073287;28;20510;-51
2021/09/14 11:32:27;;;;;;;6.10;4.20;;;;;;;30.69;35.78;98593.78;5055178;28;20067;-51
2021/09/14 11:34:54;;;;;;;5.82;2.20;;;;;;;30.10;36.17;98597.56;5073192;28;20016;-51
2021/09/14 11:37:31;;;;;;;5.30;2.63;;;;;;;29.52;36.58;98613.53;5055027;28;20028;-51
2021/09/14 11:39:58;;;;;;;3.95;1.73;;;;;;;28.89;37.62;98603.34;5054609;28;20417;-51
2021/09/14 11:42:24;;;;;;;10.40;3.60;;;;;;;28.49;38.69;98606.28;5054520;28;20051;-51
2021/09/14 11:45:09;;;;;;;6.60;2.38;;;;;;;28.20;39.35;98605.06;5054858;28;20021;-51
2021/09/14 11:47:43;;;;;;;4.68;2.20;;;;;;;28.15;39.58;98605.22;5055032;28;20490;-51
2021/09/14 11:50:29;;;;;;;4.40;1.95;;;;;;;28.08;39.74;98602.22;5072906;28;20083;-51
2021/09/14 11:53:07;;;;;;;4.75;2.30;;;;;;;27.97;39.64;98590.13;5054876;28;20028;-51
2021/09/14 11:55:39;;;;;;;3.65;2.40;;;;;;;27.89;40.10;98587.13;5072810;28;20024;-50
2021/09/14 11:58:05;;;;;;;7.05;3.50;;;;;;;27.85;40.36;98586.16;5054816;28;20494;-50
2021/09/14 12:00:35;;;;;;;5.20;2.10;;;;;;;28.12;40.27;98580.78;5072647;28;20020;-51
2021/09/14 12:03:01;;;;;;;6.05;2.63;;;;;;;28.25;39.98;98582.50;5072587;28;20029;-51
2021/09/14 12:05:27;;;;;;;8.18;2.50;;;;;;;28.43;39.77;98573.28;5071211;28;20077;-51
2021/09/14 12:08:00;;;;;;;7.22;2.13;;;;;;;28.57;39.40;98577.69;5072515;28;20017;-51
2021/09/14 12:10:27;;;;;;;9.85;3.50;;;;;;;28.54;38.72;98557.56;5072441;28;20029;-51
2021/09/14 12:12:55;;;;;;;3.33;1.95;;;;;;;28.39;39.16;98571.53;5054443;28;20119;-51
2021/09/14 12:15:22;;;;;;;8.05;3.47;;;;;;;28.35;39.32;98576.75;5072322;28;20025;-51
2021/09/14 12:17:48;;;;;;;13.52;3.85;;;;;;;28.48;39.05;98573.09;5072372;28;20029;-51
2021/09/14 12:20:15;;;;;;;12.82;7.25;;;;;;;28.60;39.17;98558.97;5072086;28;20044;-51
2021/09/14 12:22:42;;;;;;;4.85;2.50;;;;;;;28.92;38.48;98558.69;5054167;28;20440;-51
2021/09/14 12:25:08;;;;;;;3.85;2.22;;;;;;;28.99;38.59;98554.34;5072223;28;20103;-51
2021/09/14 12:27:33;;;;;;;6.85;2.83;;;;;;;28.95;38.41;98555.31;5054245;28;20024;-50
2021/09/14 12:29:59;;;;;;;4.13;2.00;;;;;;;28.93;38.21;98554.84;5072111;28;20509;-51
2021/09/14 12:32:26;;;;;;;7.90;2.35;;;;;;;28.96;38.45;98551.53;5072100;28;20466;-51